sensor_id;sensor_type;location;lat;lon;timestamp;temperature;humidity
26909;DHT22;14477;51.038;4.588;2023-03-23T00:02:29;15.30;99.90
26909;DHT22;14477;51.038;4.588;2023-03-23T00:04:57;15.30;99.90
26909;DHT22;14477;51.038;4.588;2023-03-23T00:07:26;15.30;99.90
26909;DHT22;14477;51.038;4.588;2023-03-23T00:09:54;15.40;99.90
26909;DHT22;14477;51.038;4.588;2023-03-23T00:12:25;15.40;99.90
26909;DHT22;14477;51.038;4.588;2023-03-23T00:15:08;15.40;99.90
26909;DHT22;14477;51.038;4.588;2023-03-23T00:17:38;15.40;99.90
26909;DHT22;14477;51.038;4.588;2023-03-23T00:20:05;15.50;99.90
26909;DHT22;14477;51.038;4.588;2023-03-23T00:22:32;15.50;99.90
26909;DHT22;14477;51.038;4.588;2023-03-23T00:25:03;15.50;99.90
26909;DHT22;14477;51.038;4.588;2023-03-23T00:27:29;15.50;99.90
26909;DHT22;14477;51.038;4.588;2023-03-23T00:29:55;15.50;99.90
26909;DHT22;14477;51.038;4.588;2023-03-23T00:32:23;15.50;99.90
26909;DHT22;14477;51.038;4.588;2023-03-23T00:34:53;15.50;99.90
26909;DHT22;14477;51.038;4.588;2023-03-23T00:37:19;15.50;99.90
26909;DHT22;14477;51.038;4.588;2023-03-23T00:39:45;15.50;99.90
26909;DHT22;14477;51.038;4.588;2023-03-23T00:42:15;15.50;99.90
26909;DHT22;14477;51.038;4.588;2023-03-23T00:44:42;15.50;99.90
26909;DHT22;14477;51.038;4.588;2023-03-23T00:47:10;15.50;99.90
26909;DHT22;14477;51.038;4.588;2023-03-23T00:49:36;15.50;99.90
26909;DHT22;14477;51.038;4.588;2023-03-23T00:52:03;15.40;99.90
26909;DHT22;14477;51.038;4.588;2023-03-23T00:54:31;15.50;99.90
26909;DHT22;14477;51.038;4.588;2023-03-23T00:56:57;15.40;99.90
26909;DHT22;14477;51.038;4.588;2023-03-23T00:59:22;15.50;99.90
26909;DHT22;14477;51.038;4.588;2023-03-23T01:01:49;15.40;99.90
26909;DHT22;14477;51.038;4.588;2023-03-23T01:04:15;15.50;99.90
26909;DHT22;14477;51.038;4.588;2023-03-23T01:06:43;15.50;99.90
26909;DHT22;14477;51.038;4.588;2023-03-23T01:09:11;15.50;99.90
26909;DHT22;14477;51.038;4.588;2023-03-23T01:11:43;15.50;99.90
26909;DHT22;14477;51.038;4.588;2023-03-23T01:14:10;15.50;99.90
26909;DHT22;14477;51.038;4.588;2023-03-23T01:16:36;15.50;99.90
26909;DHT22;14477;51.038;4.588;2023-03-23T01:19:02;15.50;99.90
26909;DHT22;14477;51.038;4.588;2023-03-23T01:21:28;15.50;99.90
26909;DHT22;14477;51.038;4.588;2023-03-23T01:23:53;15.50;99.90
26909;DHT22;14477;51.038;4.588;2023-03-23T01:26:22;15.50;99.90
26909;DHT22;14477;51.038;4.588;2023-03-23T01:28:48;15.50;99.90
26909;DHT22;14477;51.038;4.588;2023-03-23T01:31:20;15.50;99.90
26909;DHT22;14477;51.038;4.588;2023-03-23T01:33:47;15.50;99.90
26909;DHT22;14477;51.038;4.588;2023-03-23T01:36:16;15.60;99.90
26909;DHT22;14477;51.038;4.588;2023-03-23T01:38:43;15.60;99.90
26909;DHT22;14477;51.038;4.588;2023-03-23T01:41:10;15.60;99.90
26909;DHT22;14477;51.038;4.588;2023-03-23T01:43:52;15.60;99.90
26909;DHT22;14477;51.038;4.588;2023-03-23T01:46:18;15.60;99.90
26909;DHT22;14477;51.038;4.588;2023-03-23T01:48:44;15.60;99.90
26909;DHT22;14477;51.038;4.588;2023-03-23T01:51:15;15.60;99.90
26909;DHT22;14477;51.038;4.588;2023-03-23T01:53:50;15.60;99.90
26909;DHT22;14477;51.038;4.588;2023-03-23T01:56:19;15.60;99.90
26909;DHT22;14477;51.038;4.588;2023-03-23T01:58:46;15.60;99.90
26909;DHT22;14477;51.038;4.588;2023-03-23T02:01:13;15.60;99.90
26909;DHT22;14477;51.038;4.588;2023-03-23T02:03:42;15.50;99.90
26909;DHT22;14477;51.038;4.588;2023-03-23T02:06:09;15.50;99.90
26909;DHT22;14477;51.038;4.588;2023-03-23T02:08:35;15.60;99.90
26909;DHT22;14477;51.038;4.588;2023-03-23T02:11:12;15.50;99.90
26909;DHT22;14477;51.038;4.588;2023-03-23T02:13:38;15.50;99.90
26909;DHT22;14477;51.038;4.588;2023-03-23T02:16:27;15.50;99.90
26909;DHT22;14477;51.038;4.588;2023-03-23T02:19:01;15.50;99.90
26909;DHT22;14477;51.038;4.588;2023-03-23T02:21:59;15.50;99.90
26909;DHT22;14477;51.038;4.588;2023-03-23T02:30:13;15.60;99.90
26909;DHT22;14477;51.038;4.588;2023-03-23T02:35:39;15.50;99.90
26909;DHT22;14477;51.038;4.588;2023-03-23T02:38:15;15.50;99.90
26909;DHT22;14477;51.038;4.588;2023-03-23T02:40:44;15.50;99.90
26909;DHT22;14477;51.038;4.588;2023-03-23T02:43:14;15.50;99.90
26909;DHT22;14477;51.038;4.588;2023-03-23T02:45:42;15.50;99.90
26909;DHT22;14477;51.038;4.588;2023-03-23T02:48:09;15.50;99.90
26909;DHT22;14477;51.038;4.588;2023-03-23T02:50:37;15.50;99.90
26909;DHT22;14477;51.038;4.588;2023-03-23T02:53:07;15.50;99.90
26909;DHT22;14477;51.038;4.588;2023-03-23T02:55:34;15.50;99.90
26909;DHT22;14477;51.038;4.588;2023-03-23T02:58:01;15.50;99.90
26909;DHT22;14477;51.038;4.588;2023-03-23T03:00:27;15.40;99.90
26909;DHT22;14477;51.038;4.588;2023-03-23T03:02:54;15.50;99.90
26909;DHT22;14477;51.038;4.588;2023-03-23T03:10:57;15.40;99.90
26909;DHT22;14477;51.038;4.588;2023-03-23T03:16:39;15.40;99.90
26909;DHT22;14477;51.038;4.588;2023-03-23T03:19:10;15.40;99.90
26909;DHT22;14477;51.038;4.588;2023-03-23T03:21:42;15.40;99.90
26909;DHT22;14477;51.038;4.588;2023-03-23T03:24:10;15.40;99.90
26909;DHT22;14477;51.038;4.588;2023-03-23T03:26:40;15.40;99.90
26909;DHT22;14477;51.038;4.588;2023-03-23T03:29:11;15.40;99.90
26909;DHT22;14477;51.038;4.588;2023-03-23T03:31:39;15.40;99.90
26909;DHT22;14477;51.038;4.588;2023-03-23T03:34:06;15.40;99.90
26909;DHT22;14477;51.038;4.588;2023-03-23T03:36:34;15.40;99.90
26909;DHT22;14477;51.038;4.588;2023-03-23T03:39:08;15.40;99.90
26909;DHT22;14477;51.038;4.588;2023-03-23T03:41:36;15.30;99.90
26909;DHT22;14477;51.038;4.588;2023-03-23T03:44:03;15.30;99.90
26909;DHT22;14477;51.038;4.588;2023-03-23T03:46:29;15.30;99.90
26909;DHT22;14477;51.038;4.588;2023-03-23T03:48:57;15.30;99.90
26909;DHT22;14477;51.038;4.588;2023-03-23T03:51:24;15.30;99.90
26909;DHT22;14477;51.038;4.588;2023-03-23T03:53:50;15.40;99.90
26909;DHT22;14477;51.038;4.588;2023-03-23T03:56:16;15.40;99.90
26909;DHT22;14477;51.038;4.588;2023-03-23T03:58:42;15.30;99.90
26909;DHT22;14477;51.038;4.588;2023-03-23T04:01:08;15.30;99.90
26909;DHT22;14477;51.038;4.588;2023-03-23T04:03:38;15.40;99.90
26909;DHT22;14477;51.038;4.588;2023-03-23T04:06:04;15.30;99.90
26909;DHT22;14477;51.038;4.588;2023-03-23T04:08:30;15.40;99.90
26909;DHT22;14477;51.038;4.588;2023-03-23T04:10:57;15.40;99.90
26909;DHT22;14477;51.038;4.588;2023-03-23T04:13:23;15.40;99.90
26909;DHT22;14477;51.038;4.588;2023-03-23T04:15:49;15.40;99.90
26909;DHT22;14477;51.038;4.588;2023-03-23T04:18:15;15.40;99.90
26909;DHT22;14477;51.038;4.588;2023-03-23T04:20:44;15.40;99.90
26909;DHT22;14477;51.038;4.588;2023-03-23T04:23:16;15.40;99.90
26909;DHT22;14477;51.038;4.588;2023-03-23T04:25:51;15.40;99.90
26909;DHT22;14477;51.038;4.588;2023-03-23T04:28:19;15.40;99.90
26909;DHT22;14477;51.038;4.588;2023-03-23T04:30:50;15.40;99.90
26909;DHT22;14477;51.038;4.588;2023-03-23T04:33:18;15.40;99.90
26909;DHT22;14477;51.038;4.588;2023-03-23T04:35:45;15.40;99.90
26909;DHT22;14477;51.038;4.588;2023-03-23T04:38:16;15.40;99.90
26909;DHT22;14477;51.038;4.588;2023-03-23T04:40:43;15.40;99.90
26909;DHT22;14477;51.038;4.588;2023-03-23T04:43:10;15.30;99.90
26909;DHT22;14477;51.038;4.588;2023-03-23T04:45:38;15.30;99.90
26909;DHT22;14477;51.038;4.588;2023-03-23T04:48:07;15.30;99.90
26909;DHT22;14477;51.038;4.588;2023-03-23T04:50:34;15.30;99.90
26909;DHT22;14477;51.038;4.588;2023-03-23T04:53:02;15.30;99.90
26909;DHT22;14477;51.038;4.588;2023-03-23T04:55:33;15.30;99.90
26909;DHT22;14477;51.038;4.588;2023-03-23T04:58:03;15.30;99.90
26909;DHT22;14477;51.038;4.588;2023-03-23T05:00:29;15.30;99.90
26909;DHT22;14477;51.038;4.588;2023-03-23T05:02:55;15.30;99.90
26909;DHT22;14477;51.038;4.588;2023-03-23T05:05:22;15.30;99.90
26909;DHT22;14477;51.038;4.588;2023-03-23T05:07:48;15.30;99.90
26909;DHT22;14477;51.038;4.588;2023-03-23T05:10:15;15.30;99.90
26909;DHT22;14477;51.038;4.588;2023-03-23T05:12:42;15.30;99.90
26909;DHT22;14477;51.038;4.588;2023-03-23T05:15:09;15.20;99.90
26909;DHT22;14477;51.038;4.588;2023-03-23T05:17:36;15.20;99.90
26909;DHT22;14477;51.038;4.588;2023-03-23T05:20:03;15.10;99.90
26909;DHT22;14477;51.038;4.588;2023-03-23T05:22:30;15.10;99.90
26909;DHT22;14477;51.038;4.588;2023-03-23T05:24:58;15.10;99.90
26909;DHT22;14477;51.038;4.588;2023-03-23T05:27:24;15.10;99.90
26909;DHT22;14477;51.038;4.588;2023-03-23T05:29:53;15.00;99.90
26909;DHT22;14477;51.038;4.588;2023-03-23T05:32:19;15.00;99.90
26909;DHT22;14477;51.038;4.588;2023-03-23T05:34:45;15.00;99.90
26909;DHT22;14477;51.038;4.588;2023-03-23T05:37:12;15.00;99.90
26909;DHT22;14477;51.038;4.588;2023-03-23T05:39:39;15.00;99.90
26909;DHT22;14477;51.038;4.588;2023-03-23T05:42:05;15.00;99.90
26909;DHT22;14477;51.038;4.588;2023-03-23T05:44:31;15.00;99.90
26909;DHT22;14477;51.038;4.588;2023-03-23T05:46:57;15.00;99.90
26909;DHT22;14477;51.038;4.588;2023-03-23T05:49:23;15.00;99.90
26909;DHT22;14477;51.038;4.588;2023-03-23T05:51:50;15.00;99.90
26909;DHT22;14477;51.038;4.588;2023-03-23T05:54:16;15.00;99.90
26909;DHT22;14477;51.038;4.588;2023-03-23T05:56:41;15.00;99.90
26909;DHT22;14477;51.038;4.588;2023-03-23T05:59:07;15.10;99.90
26909;DHT22;14477;51.038;4.588;2023-03-23T06:01:34;15.10;99.90
26909;DHT22;14477;51.038;4.588;2023-03-23T06:03:59;15.00;99.90
26909;DHT22;14477;51.038;4.588;2023-03-23T06:06:26;15.10;99.90
26909;DHT22;14477;51.038;4.588;2023-03-23T06:08:52;15.10;99.90
26909;DHT22;14477;51.038;4.588;2023-03-23T06:11:18;15.00;99.90
26909;DHT22;14477;51.038;4.588;2023-03-23T06:13:44;15.00;99.90
26909;DHT22;14477;51.038;4.588;2023-03-23T06:16:10;15.00;99.90
26909;DHT22;14477;51.038;4.588;2023-03-23T06:18:36;15.00;99.90
26909;DHT22;14477;51.038;4.588;2023-03-23T06:21:05;15.00;99.90
26909;DHT22;14477;51.038;4.588;2023-03-23T06:23:31;15.00;99.90
26909;DHT22;14477;51.038;4.588;2023-03-23T06:26:05;15.00;99.90
26909;DHT22;14477;51.038;4.588;2023-03-23T06:28:31;15.00;99.90
26909;DHT22;14477;51.038;4.588;2023-03-23T06:31:05;15.10;99.90
26909;DHT22;14477;51.038;4.588;2023-03-23T06:33:35;15.00;99.90
26909;DHT22;14477;51.038;4.588;2023-03-23T06:36:02;15.10;99.90
26909;DHT22;14477;51.038;4.588;2023-03-23T06:38:28;15.10;99.90
26909;DHT22;14477;51.038;4.588;2023-03-23T06:40:54;15.10;99.90
26909;DHT22;14477;51.038;4.588;2023-03-23T06:43:21;15.10;99.90
26909;DHT22;14477;51.038;4.588;2023-03-23T06:45:46;15.20;99.90
26909;DHT22;14477;51.038;4.588;2023-03-23T06:48:12;15.20;99.90
26909;DHT22;14477;51.038;4.588;2023-03-23T06:50:38;15.20;99.90
26909;DHT22;14477;51.038;4.588;2023-03-23T06:53:07;15.10;99.90
26909;DHT22;14477;51.038;4.588;2023-03-23T06:55:33;15.00;99.90
26909;DHT22;14477;51.038;4.588;2023-03-23T06:57:58;14.80;99.90
26909;DHT22;14477;51.038;4.588;2023-03-23T07:00:27;14.60;99.90
26909;DHT22;14477;51.038;4.588;2023-03-23T07:02:52;14.40;99.90
26909;DHT22;14477;51.038;4.588;2023-03-23T07:05:18;14.20;99.90
26909;DHT22;14477;51.038;4.588;2023-03-23T07:07:45;14.10;99.90
26909;DHT22;14477;51.038;4.588;2023-03-23T07:10:11;13.90;99.90
26909;DHT22;14477;51.038;4.588;2023-03-23T07:12:37;13.80;99.90
26909;DHT22;14477;51.038;4.588;2023-03-23T07:15:04;13.70;99.90
26909;DHT22;14477;51.038;4.588;2023-03-23T07:17:30;13.60;99.90
26909;DHT22;14477;51.038;4.588;2023-03-23T07:19:56;13.50;99.90
26909;DHT22;14477;51.038;4.588;2023-03-23T07:22:22;13.30;99.90
26909;DHT22;14477;51.038;4.588;2023-03-23T07:24:48;13.30;99.90
26909;DHT22;14477;51.038;4.588;2023-03-23T07:27:13;13.20;99.90
26909;DHT22;14477;51.038;4.588;2023-03-23T07:29:39;13.10;99.90
26909;DHT22;14477;51.038;4.588;2023-03-23T07:32:06;13.00;99.90
26909;DHT22;14477;51.038;4.588;2023-03-23T07:34:34;12.90;99.90
26909;DHT22;14477;51.038;4.588;2023-03-23T07:37:00;12.90;99.90
26909;DHT22;14477;51.038;4.588;2023-03-23T07:39:25;12.80;99.90
26909;DHT22;14477;51.038;4.588;2023-03-23T07:41:51;12.80;99.90
26909;DHT22;14477;51.038;4.588;2023-03-23T07:44:17;12.80;99.90
26909;DHT22;14477;51.038;4.588;2023-03-23T07:46:43;12.70;99.90
26909;DHT22;14477;51.038;4.588;2023-03-23T07:49:09;12.70;99.90
26909;DHT22;14477;51.038;4.588;2023-03-23T07:51:35;12.60;99.90
26909;DHT22;14477;51.038;4.588;2023-03-23T07:54:04;12.60;99.90
26909;DHT22;14477;51.038;4.588;2023-03-23T07:56:30;12.60;99.90
26909;DHT22;14477;51.038;4.588;2023-03-23T07:58:56;12.60;99.90
26909;DHT22;14477;51.038;4.588;2023-03-23T08:01:22;12.60;99.90
26909;DHT22;14477;51.038;4.588;2023-03-23T08:03:49;12.60;99.90
26909;DHT22;14477;51.038;4.588;2023-03-23T08:06:16;12.60;99.90
26909;DHT22;14477;51.038;4.588;2023-03-23T08:08:41;12.60;99.90
26909;DHT22;14477;51.038;4.588;2023-03-23T08:11:07;12.60;99.90
26909;DHT22;14477;51.038;4.588;2023-03-23T08:13:33;12.60;99.90
26909;DHT22;14477;51.038;4.588;2023-03-23T08:16:00;12.60;99.90
26909;DHT22;14477;51.038;4.588;2023-03-23T08:18:29;12.60;99.90
26909;DHT22;14477;51.038;4.588;2023-03-23T08:20:55;12.70;99.90
26909;DHT22;14477;51.038;4.588;2023-03-23T08:23:21;12.70;99.90
26909;DHT22;14477;51.038;4.588;2023-03-23T08:25:47;12.80;99.90
26909;DHT22;14477;51.038;4.588;2023-03-23T08:28:13;12.90;99.90
26909;DHT22;14477;51.038;4.588;2023-03-23T08:30:40;12.90;99.90
26909;DHT22;14477;51.038;4.588;2023-03-23T08:33:06;12.90;99.90
26909;DHT22;14477;51.038;4.588;2023-03-23T08:35:34;13.00;99.90
26909;DHT22;14477;51.038;4.588;2023-03-23T08:38:00;13.00;99.90
26909;DHT22;14477;51.038;4.588;2023-03-23T08:40:25;13.10;99.90
26909;DHT22;14477;51.038;4.588;2023-03-23T08:42:52;13.10;99.90
26909;DHT22;14477;51.038;4.588;2023-03-23T08:45:21;13.10;99.90
26909;DHT22;14477;51.038;4.588;2023-03-23T08:47:48;13.10;99.90
26909;DHT22;14477;51.038;4.588;2023-03-23T08:50:24;13.10;99.90
26909;DHT22;14477;51.038;4.588;2023-03-23T08:52:51;13.10;99.90
26909;DHT22;14477;51.038;4.588;2023-03-23T08:55:17;13.10;99.90
26909;DHT22;14477;51.038;4.588;2023-03-23T08:57:44;13.10;99.90
26909;DHT22;14477;51.038;4.588;2023-03-23T09:00:12;13.10;99.90
26909;DHT22;14477;51.038;4.588;2023-03-23T09:02:49;13.10;99.90
26909;DHT22;14477;51.038;4.588;2023-03-23T09:05:17;13.10;99.90
26909;DHT22;14477;51.038;4.588;2023-03-23T09:07:46;13.10;99.90
26909;DHT22;14477;51.038;4.588;2023-03-23T09:10:13;13.10;99.90
26909;DHT22;14477;51.038;4.588;2023-03-23T09:12:40;13.10;99.90
26909;DHT22;14477;51.038;4.588;2023-03-23T09:15:08;13.10;99.90
26909;DHT22;14477;51.038;4.588;2023-03-23T09:17:43;13.20;99.90
26909;DHT22;14477;51.038;4.588;2023-03-23T09:20:12;13.20;99.90
26909;DHT22;14477;51.038;4.588;2023-03-23T09:22:43;13.30;99.90
26909;DHT22;14477;51.038;4.588;2023-03-23T09:25:14;13.40;99.90
26909;DHT22;14477;51.038;4.588;2023-03-23T09:27:41;13.50;99.90
26909;DHT22;14477;51.038;4.588;2023-03-23T09:30:12;13.60;99.90
26909;DHT22;14477;51.038;4.588;2023-03-23T09:32:39;13.70;99.90
26909;DHT22;14477;51.038;4.588;2023-03-23T09:35:07;13.80;99.90
26909;DHT22;14477;51.038;4.588;2023-03-23T09:37:39;14.00;99.90
26909;DHT22;14477;51.038;4.588;2023-03-23T09:40:10;14.20;99.90
26909;DHT22;14477;51.038;4.588;2023-03-23T09:48:31;15.30;99.90
26909;DHT22;14477;51.038;4.588;2023-03-23T09:51:35;15.70;99.90
26909;DHT22;14477;51.038;4.588;2023-03-23T09:56:51;16.70;99.90
26909;DHT22;14477;51.038;4.588;2023-03-23T09:59:38;17.20;99.90
26909;DHT22;14477;51.038;4.588;2023-03-23T10:02:12;17.60;99.90
26909;DHT22;14477;51.038;4.588;2023-03-23T10:04:54;18.00;99.90
26909;DHT22;14477;51.038;4.588;2023-03-23T10:07:22;18.40;99.90
26909;DHT22;14477;51.038;4.588;2023-03-23T10:09:55;18.80;99.90
26909;DHT22;14477;51.038;4.588;2023-03-23T10:12:30;19.10;99.90
26909;DHT22;14477;51.038;4.588;2023-03-23T10:17:47;19.30;99.90
26909;DHT22;14477;51.038;4.588;2023-03-23T10:26:11;19.10;99.90
26909;DHT22;14477;51.038;4.588;2023-03-23T10:28:44;18.90;99.20
26909;DHT22;14477;51.038;4.588;2023-03-23T10:31:19;18.70;99.90
26909;DHT22;14477;51.038;4.588;2023-03-23T10:33:52;18.50;99.90
26909;DHT22;14477;51.038;4.588;2023-03-23T10:36:35;18.30;99.90
26909;DHT22;14477;51.038;4.588;2023-03-23T10:39:13;18.20;99.90
26909;DHT22;14477;51.038;4.588;2023-03-23T10:41:40;18.00;99.90
26909;DHT22;14477;51.038;4.588;2023-03-23T10:44:19;17.80;99.90
26909;DHT22;14477;51.038;4.588;2023-03-23T10:47:07;17.70;99.90
26909;DHT22;14477;51.038;4.588;2023-03-23T10:49:53;17.60;99.90
26909;DHT22;14477;51.038;4.588;2023-03-23T10:52:37;17.50;99.90
26909;DHT22;14477;51.038;4.588;2023-03-23T10:57:38;17.40;99.90
26909;DHT22;14477;51.038;4.588;2023-03-23T11:00:16;17.20;99.90
26909;DHT22;14477;51.038;4.588;2023-03-23T11:03:06;17.20;99.90
26909;DHT22;14477;51.038;4.588;2023-03-23T11:08:24;17.20;99.90
26909;DHT22;14477;51.038;4.588;2023-03-23T11:13:19;17.20;99.90
26909;DHT22;14477;51.038;4.588;2023-03-23T11:15:47;17.10;99.90
26909;DHT22;14477;51.038;4.588;2023-03-23T11:18:20;17.10;99.90
26909;DHT22;14477;51.038;4.588;2023-03-23T11:20:51;17.20;99.90
26909;DHT22;14477;51.038;4.588;2023-03-23T11:23:31;17.30;99.90
26909;DHT22;14477;51.038;4.588;2023-03-23T11:26:12;17.60;99.90
26909;DHT22;14477;51.038;4.588;2023-03-23T11:29:09;18.00;99.90
26909;DHT22;14477;51.038;4.588;2023-03-23T11:31:54;18.40;99.90
26909;DHT22;14477;51.038;4.588;2023-03-23T11:34:33;19.00;99.90
26909;DHT22;14477;51.038;4.588;2023-03-23T11:39:31;19.70;99.90
26909;DHT22;14477;51.038;4.588;2023-03-23T11:42:00;20.00;99.90
26909;DHT22;14477;51.038;4.588;2023-03-23T11:44:42;20.30;99.90
26909;DHT22;14477;51.038;4.588;2023-03-23T11:47:32;20.40;99.90
26909;DHT22;14477;51.038;4.588;2023-03-23T11:52:34;20.40;99.90
26909;DHT22;14477;51.038;4.588;2023-03-23T11:55:11;20.30;99.90
26909;DHT22;14477;51.038;4.588;2023-03-23T11:57:38;20.10;98.90
26909;DHT22;14477;51.038;4.588;2023-03-23T12:00:19;20.00;99.90
26909;DHT22;14477;51.038;4.588;2023-03-23T12:03:05;19.80;99.90
26909;DHT22;14477;51.038;4.588;2023-03-23T12:06:07;19.90;99.90
26909;DHT22;14477;51.038;4.588;2023-03-23T12:14:20;20.10;99.90
26909;DHT22;14477;51.038;4.588;2023-03-23T12:19:32;20.30;99.90
26909;DHT22;14477;51.038;4.588;2023-03-23T12:22:10;20.30;99.90
26909;DHT22;14477;51.038;4.588;2023-03-23T12:28:09;20.20;98.00
26909;DHT22;14477;51.038;4.588;2023-03-23T12:44:52;21.60;99.90
26909;DHT22;14477;51.038;4.588;2023-03-23T12:52:54;22.40;99.90
26909;DHT22;14477;51.038;4.588;2023-03-23T12:56:02;22.50;99.90
26909;DHT22;14477;51.038;4.588;2023-03-23T12:58:32;22.80;99.90
26909;DHT22;14477;51.038;4.588;2023-03-23T13:01:08;23.20;99.90
26909;DHT22;14477;51.038;4.588;2023-03-23T13:06:18;23.40;92.80
26909;DHT22;14477;51.038;4.588;2023-03-23T13:11:54;23.50;92.50
26909;DHT22;14477;51.038;4.588;2023-03-23T13:14:37;23.40;96.90
26909;DHT22;14477;51.038;4.588;2023-03-23T13:17:20;23.50;99.00
26909;DHT22;14477;51.038;4.588;2023-03-23T13:28:17;23.40;91.60
26909;DHT22;14477;51.038;4.588;2023-03-23T13:33:38;23.00;94.50
26909;DHT22;14477;51.038;4.588;2023-03-23T13:36:08;22.70;96.10
26909;DHT22;14477;51.038;4.588;2023-03-23T13:38:35;22.50;95.80
26909;DHT22;14477;51.038;4.588;2023-03-23T13:41:11;22.30;96.20
26909;DHT22;14477;51.038;4.588;2023-03-23T13:43:38;22.20;94.40
26909;DHT22;14477;51.038;4.588;2023-03-23T13:48:51;22.20;98.80
26909;DHT22;14477;51.038;4.588;2023-03-23T14:01:52;22.60;95.80
26909;DHT22;14477;51.038;4.588;2023-03-23T14:04:19;22.60;97.60
26909;DHT22;14477;51.038;4.588;2023-03-23T14:06:48;22.50;96.70
26909;DHT22;14477;51.038;4.588;2023-03-23T14:09:24;22.50;97.50
26909;DHT22;14477;51.038;4.588;2023-03-23T14:11:59;22.40;96.30
26909;DHT22;14477;51.038;4.588;2023-03-23T14:14:33;22.30;94.20
26909;DHT22;14477;51.038;4.588;2023-03-23T14:19:39;22.10;95.00
26909;DHT22;14477;51.038;4.588;2023-03-23T14:22:24;22.20;97.70
26909;DHT22;14477;51.038;4.588;2023-03-23T14:24:50;22.30;93.50
26909;DHT22;14477;51.038;4.588;2023-03-23T14:27:22;22.30;96.00
26909;DHT22;14477;51.038;4.588;2023-03-23T14:30:07;22.20;94.00
26909;DHT22;14477;51.038;4.588;2023-03-23T14:32:34;22.00;89.20
26909;DHT22;14477;51.038;4.588;2023-03-23T14:35:06;21.90;94.60
26909;DHT22;14477;51.038;4.588;2023-03-23T14:37:33;21.70;93.10
26909;DHT22;14477;51.038;4.588;2023-03-23T14:40:01;21.60;94.60
26909;DHT22;14477;51.038;4.588;2023-03-23T14:42:34;21.50;94.40
26909;DHT22;14477;51.038;4.588;2023-03-23T14:45:02;21.50;93.70
26909;DHT22;14477;51.038;4.588;2023-03-23T14:47:35;21.50;93.90
26909;DHT22;14477;51.038;4.588;2023-03-23T14:50:05;21.60;94.60
26909;DHT22;14477;51.038;4.588;2023-03-23T14:52:36;21.60;95.40
26909;DHT22;14477;51.038;4.588;2023-03-23T14:55:19;21.60;92.30
26909;DHT22;14477;51.038;4.588;2023-03-23T14:57:47;21.50;92.60
26909;DHT22;14477;51.038;4.588;2023-03-23T15:00:33;21.40;94.20
26909;DHT22;14477;51.038;4.588;2023-03-23T15:03:01;21.30;93.00
26909;DHT22;14477;51.038;4.588;2023-03-23T15:05:42;21.20;94.70
26909;DHT22;14477;51.038;4.588;2023-03-23T15:08:31;21.00;94.00
26909;DHT22;14477;51.038;4.588;2023-03-23T15:11:26;20.90;93.00
26909;DHT22;14477;51.038;4.588;2023-03-23T15:13:58;20.70;91.10
26909;DHT22;14477;51.038;4.588;2023-03-23T15:16:28;20.50;92.90
26909;DHT22;14477;51.038;4.588;2023-03-23T15:19:02;20.30;92.90
26909;DHT22;14477;51.038;4.588;2023-03-23T15:24:38;20.00;92.30
26909;DHT22;14477;51.038;4.588;2023-03-23T15:27:26;20.00;95.10
26909;DHT22;14477;51.038;4.588;2023-03-23T15:29:55;20.00;95.20
26909;DHT22;14477;51.038;4.588;2023-03-23T15:32:31;20.00;96.60
26909;DHT22;14477;51.038;4.588;2023-03-23T15:34:58;20.10;95.90
26909;DHT22;14477;51.038;4.588;2023-03-23T15:37:31;20.10;96.30
26909;DHT22;14477;51.038;4.588;2023-03-23T15:39:58;20.10;96.10
26909;DHT22;14477;51.038;4.588;2023-03-23T15:42:32;20.00;95.10
26909;DHT22;14477;51.038;4.588;2023-03-23T15:50:46;19.80;93.80
26909;DHT22;14477;51.038;4.588;2023-03-23T15:53:19;19.70;94.20
26909;DHT22;14477;51.038;4.588;2023-03-23T15:55:47;19.70;94.80
26909;DHT22;14477;51.038;4.588;2023-03-23T15:58:13;19.60;95.40
26909;DHT22;14477;51.038;4.588;2023-03-23T16:00:40;19.60;95.50
26909;DHT22;14477;51.038;4.588;2023-03-23T16:03:12;19.50;96.20
26909;DHT22;14477;51.038;4.588;2023-03-23T16:05:39;19.50;95.50
26909;DHT22;14477;51.038;4.588;2023-03-23T16:08:09;19.40;96.60
26909;DHT22;14477;51.038;4.588;2023-03-23T16:10:36;19.40;96.30
26909;DHT22;14477;51.038;4.588;2023-03-23T16:13:02;19.40;96.50
26909;DHT22;14477;51.038;4.588;2023-03-23T16:15:29;19.30;95.50
26909;DHT22;14477;51.038;4.588;2023-03-23T16:17:55;19.20;95.50
26909;DHT22;14477;51.038;4.588;2023-03-23T16:20:22;19.10;95.70
26909;DHT22;14477;51.038;4.588;2023-03-23T16:22:49;19.00;95.70
26909;DHT22;14477;51.038;4.588;2023-03-23T16:25:16;18.80;95.40
26909;DHT22;14477;51.038;4.588;2023-03-23T16:27:43;18.70;95.90
26909;DHT22;14477;51.038;4.588;2023-03-23T16:30:13;18.50;96.00
26909;DHT22;14477;51.038;4.588;2023-03-23T16:32:39;18.40;96.50
26909;DHT22;14477;51.038;4.588;2023-03-23T16:35:05;18.40;97.10
26909;DHT22;14477;51.038;4.588;2023-03-23T16:37:31;18.30;97.30
26909;DHT22;14477;51.038;4.588;2023-03-23T16:39:58;18.30;97.90
26909;DHT22;14477;51.038;4.588;2023-03-23T16:42:24;18.30;97.90
26909;DHT22;14477;51.038;4.588;2023-03-23T16:44:50;18.30;98.10
26909;DHT22;14477;51.038;4.588;2023-03-23T16:47:17;18.40;98.30
26909;DHT22;14477;51.038;4.588;2023-03-23T16:49:53;18.50;98.20
26909;DHT22;14477;51.038;4.588;2023-03-23T16:52:19;18.50;97.60
26909;DHT22;14477;51.038;4.588;2023-03-23T16:54:44;18.50;97.90
26909;DHT22;14477;51.038;4.588;2023-03-23T16:57:11;18.60;98.30
26909;DHT22;14477;51.038;4.588;2023-03-23T16:59:37;18.50;97.60
26909;DHT22;14477;51.038;4.588;2023-03-23T17:02:03;18.50;96.40
26909;DHT22;14477;51.038;4.588;2023-03-23T17:04:30;18.50;96.10
26909;DHT22;14477;51.038;4.588;2023-03-23T17:06:55;18.40;95.90
26909;DHT22;14477;51.038;4.588;2023-03-23T17:09:24;18.40;96.80
26909;DHT22;14477;51.038;4.588;2023-03-23T17:11:51;18.40;96.90
26909;DHT22;14477;51.038;4.588;2023-03-23T17:14:17;18.30;96.60
26909;DHT22;14477;51.038;4.588;2023-03-23T17:16:42;18.30;96.40
26909;DHT22;14477;51.038;4.588;2023-03-23T17:19:08;18.30;97.20
26909;DHT22;14477;51.038;4.588;2023-03-23T17:21:34;18.20;97.10
26909;DHT22;14477;51.038;4.588;2023-03-23T17:24:01;18.10;96.40
26909;DHT22;14477;51.038;4.588;2023-03-23T17:26:26;18.10;96.80
26909;DHT22;14477;51.038;4.588;2023-03-23T17:28:52;18.10;96.90
26909;DHT22;14477;51.038;4.588;2023-03-23T17:31:18;18.00;97.50
26909;DHT22;14477;51.038;4.588;2023-03-23T17:33:43;18.00;97.40
26909;DHT22;14477;51.038;4.588;2023-03-23T17:36:09;17.90;97.60
26909;DHT22;14477;51.038;4.588;2023-03-23T17:38:35;17.90;97.50
26909;DHT22;14477;51.038;4.588;2023-03-23T17:41:01;17.90;97.70
26909;DHT22;14477;51.038;4.588;2023-03-23T17:43:29;17.80;97.80
26909;DHT22;14477;51.038;4.588;2023-03-23T17:45:56;17.80;97.80
26909;DHT22;14477;51.038;4.588;2023-03-23T17:48:21;17.80;98.20